Logan - 24 Hour Table
Date & TimeSolar
Radiation
(W/m²)
Wind
Speed
(mph)
Wind
Direction
(degrees)
Air
Temperature
(°F)
Relative
Humidity
(%)
Precipitation
(inches)
Barometric
Pressure
(inHg)
2019/08/25 22:00 0 11.8 336 74.0 22 0.00 30.03
2019/08/25 21:00 0 7.8 353 73.4 27 0.00 30.03
2019/08/25 20:00 3 5.2 9 76.4 26 0.00 30.00
2019/08/25 19:00 90 4.8 339 81.5 28 0.00 29.96
2019/08/25 18:00 273 8.8 350 86.0 24 0.00 29.96
2019/08/25 17:00 430 9.6 302 88.8 15 0.00 29.95
2019/08/25 16:00 572 11.5 276 88.5 15 0.00 29.96
2019/08/25 15:00 624 15.1 263 87.9 17 0.00 29.98
2019/08/25 14:00 856 12.0 241 86.8 17 0.00 29.98
2019/08/25 13:00 875 10.3 239 85.1 20 0.00 30.00
2019/08/25 12:00 850 3.8 199 82.7 23 0.00 30.02
2019/08/25 11:00 765 2.8 201 80.8 28 0.00 30.04
2019/08/25 10:00 629 1.6 108 74.8 27 0.00 30.05
2019/08/25 09:00 456 2.2 346 66.4 42 0.00 30.06
2019/08/25 08:00 268 1.7 340 61.6 54 0.00 30.06
2019/08/25 07:00 73 1.3 190 52.2 70 0.00 30.04
2019/08/25 06:00 2 1.8 323 52.3 83 0.00 30.02
2019/08/25 05:00 0 3.7 54 54.6 66 0.00 30.00
2019/08/25 04:00 0 3.4 192 57.3 79 0.00 30.00
2019/08/25 03:00 0 3.5 164 59.1 47 0.00 29.98
2019/08/25 02:00 0 2.4 199 56.8 65 0.00 29.98
2019/08/25 01:00 0 2.0 320 59.1 67 0.00 29.98
2019/08/25 00:00 0 2.4 16 62.0 55 0.00 29.97
2019/08/24 23:00 0 1.6 58 64.8 46 0.00 29.97